Time;durP1;ratioP1;P1;durP2;ratioP2;P2;SDS_P1;SDS_P2;PMS_P1;PMS_P2;Temp;Humidity;BMP_temperature;BMP_pressure;BME280_temperature;BME280_humidity;BME280_pressure;Samples;Min_cycle;Max_cycle;Signal;HPM_P1;HPM_P2
2023/10/14 08:07:09;;;;;;;5.57;1.40;;;;;;;17.37;78.08;96097.25;2102260;27;20549;-62
2023/10/14 08:09:32;;;;;;;6.70;1.50;;;;;;;17.35;78.85;96100.00;2090025;28;21035;-64
2023/10/14 08:10:34;;;;;;;4.15;1.30;;;;;;;17.49;78.93;96106.00;2078292;28;20547;-64
2023/10/14 08:11:37;;;;;;;6.85;1.60;;;;;;;18.32;76.01;96103.59;2078369;28;20193;-65
2023/10/14 08:12:40;;;;;;;5.05;1.42;;;;;;;18.40;75.39;96101.97;2078117;28;20230;-64
2023/10/14 08:13:42;;;;;;;4.35;1.35;;;;;;;18.46;76.45;96100.59;2078376;28;20544;-65
2023/10/14 08:14:44;;;;;;;3.25;1.10;;;;;;;18.60;76.11;96096.78;2077464;28;20284;-64
2023/10/14 08:15:50;;;;;;;5.97;1.65;;;;;;;19.08;74.43;96108.56;2078143;28;20213;-64
2023/10/14 08:16:52;;;;;;;8.75;1.63;;;;;;;19.06;73.75;96108.69;2078174;28;20194;-65
2023/10/14 08:17:57;;;;;;;6.57;1.85;;;;;;;19.26;73.26;96106.09;2078288;28;20201;-64
2023/10/14 08:19:06;;;;;;;7.10;1.60;;;;;;;19.09;73.73;96108.41;2078162;28;20236;-65
2023/10/14 08:20:16;;;;;;;5.10;1.40;;;;;;;18.73;75.05;96104.53;2077263;28;20229;-65
2023/10/14 08:21:17;;;;;;;5.90;1.48;;;;;;;18.46;75.39;96105.88;2077637;28;20197;-62
2023/10/14 08:22:19;;;;;;;7.30;1.90;;;;;;;18.27;74.65;96104.81;2077922;28;20200;-61
2023/10/14 08:23:26;;;;;;;5.00;1.40;;;;;;;18.08;75.95;96102.03;2078264;28;20561;-62
2023/10/14 08:24:27;;;;;;;4.82;1.25;;;;;;;17.74;77.19;96108.28;2077829;28;20201;-64
2023/10/14 08:25:30;;;;;;;7.03;1.30;;;;;;;17.73;77.81;96111.06;2077459;28;20596;-64
2023/10/14 08:26:36;;;;;;;9.13;1.92;;;;;;;17.53;78.38;96102.97;2078109;28;20867;-64
2023/10/14 08:27:40;;;;;;;5.38;1.55;;;;;;;17.55;78.97;96118.69;2077678;28;20541;-63
2023/10/14 08:28:42;;;;;;;4.72;1.92;;;;;;;17.53;79.38;96112.69;2078073;28;20277;-64
2023/10/14 08:29:44;;;;;;;4.90;1.20;;;;;;;17.66;79.61;96107.25;2077616;28;20221;-64
2023/10/14 08:30:46;;;;;;;8.55;2.38;;;;;;;17.55;78.86;96116.88;2078115;28;20244;-63
2023/10/14 08:31:51;;;;;;;3.42;1.15;;;;;;;17.40;78.95;96110.22;2078220;28;20194;-64
2023/10/14 08:32:53;;;;;;;9.05;1.50;;;;;;;17.33;79.63;96116.94;2077529;28;20653;-64
2023/10/14 08:33:55;;;;;;;5.60;1.52;;;;;;;17.33;80.07;96122.22;2077702;28;20197;-64
2023/10/14 08:34:56;;;;;;;7.45;1.15;;;;;;;17.35;79.46;96112.38;2077890;28;20307;-64
2023/10/14 08:35:58;;;;;;;4.72;1.40;;;;;;;17.46;79.10;96115.00;2078200;28;20209;-63
2023/10/14 08:37:01;;;;;;;4.85;1.65;;;;;;;17.57;78.34;96112.31;2078059;28;20211;-64
2023/10/14 08:38:02;;;;;;;5.10;1.80;;;;;;;17.92;77.01;96113.03;2077897;28;20197;-64
2023/10/14 08:39:04;;;;;;;4.82;1.45;;;;;;;18.89;74.47;96114.59;2078247;28;21074;-64
2023/10/14 08:40:06;;;;;;;3.10;1.23;;;;;;;19.95;70.55;96119.44;2077378;28;20229;-64
2023/10/14 08:41:14;;;;;;;4.53;1.00;;;;;;;20.98;67.66;96120.53;2077743;28;20197;-64
2023/10/14 08:42:16;;;;;;;3.15;0.90;;;;;;;21.91;64.94;96111.59;2076289;28;20202;-64
2023/10/14 08:43:22;;;;;;;8.80;1.35;;;;;;;20.80;66.77;96117.81;2078186;28;20652;-64
2023/10/14 08:44:28;;;;;;;2.50;0.80;;;;;;;19.73;69.25;96121.38;2079269;28;20280;-63
2023/10/14 08:45:30;;;;;;;4.35;1.20;;;;;;;20.08;69.33;96129.78;2077619;28;20316;-64
2023/10/14 08:46:35;;;;;;;4.38;0.98;;;;;;;20.69;67.64;96136.53;2078113;28;20190;-64
2023/10/14 08:47:40;;;;;;;2.58;1.00;;;;;;;20.18;67.79;96134.09;2077942;28;20190;-64
2023/10/14 08:48:42;;;;;;;3.85;1.05;;;;;;;19.70;69.78;96130.41;2077688;28;20822;-64
2023/10/14 08:49:45;;;;;;;3.95;1.17;;;;;;;19.05;71.52;96138.78;2077045;28;20692;-64
2023/10/14 08:50:49;;;;;;;3.50;1.02;;;;;;;18.79;73.13;96145.44;2078212;28;20277;-64
2023/10/14 08:51:52;;;;;;;3.00;1.05;;;;;;;18.62;74.32;96155.66;2078147;28;20232;-64
2023/10/14 08:52:56;;;;;;;3.63;1.35;;;;;;;18.58;75.35;96164.81;2078047;28;20197;-64
2023/10/14 08:54:00;;;;;;;5.35;0.80;;;;;;;17.96;79.61;96177.84;2077701;28;20200;-65
2023/10/14 08:55:02;;;;;;;4.40;0.85;;;;;;;17.25;83.17;96179.06;2076987;28;20685;-64
2023/10/14 08:56:04;;;;;;;4.22;1.20;;;;;;;16.37;86.40;96185.78;2077867;28;20243;-63
2023/10/14 08:57:05;;;;;;;2.08;0.80;;;;;;;15.98;88.67;96180.72;2077826;28;20224;-63
2023/10/14 08:58:13;;;;;;;6.60;0.90;;;;;;;15.51;91.48;96182.38;2077156;28;20296;-62
2023/10/14 09:26:43;;;;;;;2.45;0.85;;;;;;;14.56;100.00;96216.13;2084191;28;20568;-59
2023/10/14 09:29:09;;;;;;;2.15;0.93;;;;;;;14.71;100.00;96212.47;2083464;28;20553;-61
2023/10/14 09:30:11;;;;;;;2.05;0.90;;;;;;;14.68;100.00;96210.06;2077936;28;20232;-61
2023/10/14 09:32:44;;;;;;;1.40;0.70;;;;;;;14.30;97.55;96189.81;2083666;28;20552;-61
2023/10/14 09:33:46;;;;;;;2.08;1.00;;;;;;;14.43;96.40;96205.59;2079898;28;20196;-61
2023/10/14 09:36:22;;;;;;;2.55;0.73;;;;;;;14.39;95.08;96204.94;2101343;27;20551;-59
2023/10/14 09:37:25;;;;;;;6.38;0.70;;;;;;;14.38;95.06;96208.50;2093648;28;20196;-59
2023/10/14 09:40:13;;;;;;;5.30;0.65;;;;;;;14.25;94.65;96216.38;2083199;28;20570;-61
2023/10/14 09:43:13;;;;;;;1.52;0.60;;;;;;;14.18;94.85;96209.84;2085354;28;20922;-61
2023/10/14 09:46:08;;;;;;;2.10;0.70;;;;;;;14.26;95.91;96209.31;2093520;27;20911;-61
2023/10/14 09:48:55;;;;;;;1.77;0.68;;;;;;;14.23;96.86;96204.28;2082598;28;20557;-63
2023/10/14 09:49:58;;;;;;;1.55;0.60;;;;;;;14.00;96.70;96211.91;2077676;28;20222;-66
2023/10/14 09:51:01;;;;;;;4.68;1.10;;;;;;;14.25;97.12;96205.03;2074454;28;20210;-64
2023/10/14 09:52:04;;;;;;;2.40;1.02;;;;;;;14.18;95.95;96196.72;2073165;28;20197;-64
2023/10/14 09:53:06;;;;;;;1.60;0.77;;;;;;;14.38;95.84;96203.25;2075468;28;20614;-64
2023/10/14 09:54:08;;;;;;;1.67;0.70;;;;;;;14.52;95.26;96212.84;2077475;28;20312;-64
2023/10/14 09:55:14;;;;;;;2.17;0.80;;;;;;;14.45;95.34;96212.44;2076768;28;20786;-64
2023/10/14 09:56:17;;;;;;;1.55;0.73;;;;;;;14.46;95.10;96210.63;2073969;28;20665;-64
2023/10/14 09:57:33;;;;;;;1.40;0.60;;;;;;;14.52;95.28;96218.09;2074035;28;20200;-64
2023/10/14 09:58:41;;;;;;;3.20;0.73;;;;;;;14.80;95.08;96219.72;2072314;28;20194;-65
2023/10/14 09:59:44;;;;;;;2.90;0.70;;;;;;;14.59;94.47;96218.53;2073233;28;20190;-64
2023/10/14 10:00:49;;;;;;;2.70;0.80;;;;;;;14.81;94.97;96208.25;2074151;28;20194;-64
2023/10/14 10:01:50;;;;;;;2.50;0.70;;;;;;;14.92;94.04;96204.06;2075190;28;20216;-64
2023/10/14 10:02:53;;;;;;;2.28;0.70;;;;;;;14.72;93.12;96206.28;2074177;28;20743;-64
2023/10/14 10:04:08;;;;;;;1.70;0.70;;;;;;;14.78;91.84;96212.88;2072279;28;20675;-64
2023/10/14 10:05:17;;;;;;;2.78;0.80;;;;;;;14.93;92.14;96203.09;2071212;28;20259;-64
2023/10/14 10:06:43;;;;;;;1.30;0.60;;;;;;;15.61;91.92;96204.44;2074114;28;20960;-64
2023/10/14 10:08:04;;;;;;;1.65;0.60;;;;;;;16.04;88.74;96213.69;2074592;28;20300;-64
2023/10/14 10:09:28;;;;;;;1.40;0.70;;;;;;;16.41;88.42;96212.75;2072891;28;20189;-64
2023/10/14 10:10:31;;;;;;;2.38;0.80;;;;;;;16.15;87.39;96210.25;2073224;28;20794;-64
2023/10/14 10:11:36;;;;;;;1.70;0.68;;;;;;;15.90;88.50;96213.88;2073230;28;20201;-65
2023/10/14 10:12:41;;;;;;;1.50;0.60;;;;;;;16.08;88.43;96217.75;2074676;28;20212;-64
2023/10/14 10:13:44;;;;;;;1.63;0.70;;;;;;;15.85;88.62;96216.00;2073739;28;20201;-65
2023/10/14 10:14:48;;;;;;;1.55;0.60;;;;;;;15.72;88.45;96214.22;2074003;28;20193;-64
2023/10/14 10:15:50;;;;;;;1.65;0.70;;;;;;;15.54;88.62;96213.75;2073367;28;20209;-65
2023/10/14 10:16:53;;;;;;;1.40;0.60;;;;;;;15.51;88.81;96222.72;2073429;28;20197;-64
2023/10/14 10:18:03;;;;;;;1.80;0.80;;;;;;;15.45;90.88;96220.50;2072499;28;20186;-64
2023/10/14 10:19:05;;;;;;;1.35;0.60;;;;;;;15.21;90.09;96216.97;2073128;28;20186;-64
2023/10/14 10:20:17;;;;;;;1.15;0.60;;;;;;;15.05;90.59;96219.84;2072880;28;20241;-67
2023/10/14 10:21:19;;;;;;;1.55;0.73;;;;;;;14.83;90.58;96214.25;2072628;28;20710;-64
2023/10/14 10:22:20;;;;;;;3.85;0.70;;;;;;;14.95;90.72;96209.13;2074896;28;20201;-64
2023/10/14 10:23:23;;;;;;;2.25;0.75;;;;;;;14.99;90.92;96215.84;2075502;28;20197;-67
2023/10/14 10:24:38;;;;;;;1.73;0.80;;;;;;;14.98;89.50;96212.38;2071977;28;20202;-65
2023/10/14 10:25:40;;;;;;;1.42;0.70;;;;;;;14.98;89.94;96207.13;2073175;28;20296;-65
2023/10/14 10:27:16;;;;;;;1.67;0.60;;;;;;;15.02;90.16;96215.63;2073889;28;20202;-65
2023/10/14 10:28:26;;;;;;;1.42;0.80;;;;;;;14.95;90.67;96217.81;2062923;28;20649;-65
2023/10/14 10:29:33;;;;;;;5.70;0.70;;;;;;;15.01;90.64;96221.84;2064495;28;20198;-65
2023/10/14 10:30:46;;;;;;;5.70;0.90;;;;;;;14.89;91.88;96225.31;2064371;28;20235;-65
2023/10/14 10:32:08;;;;;;;2.08;0.77;;;;;;;14.56;92.28;96226.63;2062896;28;20724;-66
2023/10/14 10:33:11;;;;;;;1.80;0.70;;;;;;;14.57;93.01;96220.44;2065389;28;20872;-66
2023/10/14 10:34:13;;;;;;;1.77;0.70;;;;;;;14.54;94.39;96219.69;2053956;28;20205;-66
2023/10/14 10:35:19;;;;;;;5.45;0.98;;;;;;;14.51;94.90;96222.53;2054606;28;20257;-66
2023/10/14 10:36:24;;;;;;;1.20;0.60;;;;;;;14.26;94.65;96215.44;2063353;28;20245;-66
2023/10/14 10:37:27;;;;;;;5.53;0.73;;;;;;;14.32;94.08;96212.41;2064686;28;20217;-66
2023/10/14 14:21:54;;;;;;;13.18;2.35;;;;;;;11.55;87.20;96388.56;2083596;28;20916;-61
2023/10/14 14:22:56;;;;;;;14.48;2.45;;;;;;;11.70;86.35;96391.28;2080417;28;20245;-62
2023/10/14 14:23:58;;;;;;;8.75;2.53;;;;;;;11.86;86.32;96393.91;2079045;28;20734;-61
2023/10/14 14:24:59;;;;;;;7.22;1.92;;;;;;;12.53;82.78;96396.41;2074460;28;20278;-61
2023/10/14 14:26:01;;;;;;;9.38;2.55;;;;;;;12.60;81.75;96402.16;2071539;28;20197;-61
2023/10/14 14:27:02;;;;;;;10.75;2.17;;;;;;;13.20;80.55;96391.69;2072049;28;20705;-63
2023/10/14 14:28:05;;;;;;;8.68;2.90;;;;;;;12.78;81.44;96385.38;2072847;28;20198;-64
2023/10/14 14:29:09;;;;;;;13.50;3.50;;;;;;;12.73;82.08;96397.88;2071132;28;20190;-62
2023/10/14 14:30:12;;;;;;;18.75;4.22;;;;;;;12.46;81.15;96389.84;2070711;28;20219;-64
2023/10/14 14:31:14;;;;;;;15.60;5.65;;;;;;;12.32;80.90;96398.47;2071379;28;20194;-64
2023/10/14 14:32:16;;;;;;;13.23;2.70;;;;;;;12.18;80.91;96396.59;2071795;28;20196;-63
2023/10/14 14:33:18;;;;;;;13.98;2.33;;;;;;;12.00;81.49;96395.81;2071081;28;20327;-63
2023/10/14 14:34:24;;;;;;;10.82;2.22;;;;;;;11.98;80.96;96405.53;2071080;28;20262;-63
2023/10/14 14:35:30;;;;;;;8.65;2.47;;;;;;;11.96;80.58;96415.25;2071254;28;20258;-63
2023/10/14 14:36:33;;;;;;;7.38;2.25;;;;;;;11.91;81.07;96405.84;2071549;28;20199;-63
2023/10/14 14:41:31;;;;;;;6.60;2.00;;;;;;;11.46;81.52;96419.56;2085240;28;21081;-63
2023/10/14 14:42:32;;;;;;;12.40;3.08;;;;;;;11.59;81.73;96423.22;2077492;28;20188;-63
2023/10/14 14:43:37;;;;;;;15.02;3.75;;;;;;;11.55;81.69;96413.88;2079344;28;20204;-63
2023/10/14 14:44:41;;;;;;;17.00;2.95;;;;;;;12.23;80.48;96421.59;2078418;28;20205;-63
2023/10/14 14:45:44;;;;;;;14.65;2.10;;;;;;;12.70;78.42;96426.91;2071505;28;20563;-63
2023/10/14 14:46:46;;;;;;;18.42;2.55;;;;;;;13.16;76.47;96429.47;2071337;28;20734;-63
2023/10/14 14:47:53;;;;;;;10.07;2.45;;;;;;;13.49;75.15;96417.94;2068911;28;20196;-63
2023/10/14 14:48:59;;;;;;;8.18;2.83;;;;;;;13.67;74.24;96428.28;2070988;28;20200;-63
2023/10/14 14:50:00;;;;;;;14.60;2.60;;;;;;;13.80;73.49;96431.84;2073573;28;20258;-63
2023/10/14 14:51:03;;;;;;;7.00;2.28;;;;;;;13.97;72.94;96427.34;2073848;28;20203;-63
2023/10/14 14:52:05;;;;;;;10.77;2.35;;;;;;;14.19;71.82;96437.34;2072344;28;20232;-63
2023/10/14 14:53:07;;;;;;;12.48;3.22;;;;;;;14.22;71.80;96434.53;2072801;28;20591;-63
2023/10/14 14:54:08;;;;;;;14.15;2.45;;;;;;;14.20;71.58;96439.88;2073389;28;20605;-63
2023/10/14 14:55:14;;;;;;;6.60;2.17;;;;;;;14.28;72.00;96438.56;2069904;28;20221;-63
2023/10/14 14:56:15;;;;;;;12.48;2.53;;;;;;;14.68;71.60;96436.06;2068295;28;20664;-63
2023/10/14 14:57:18;;;;;;;10.43;2.30;;;;;;;15.08;70.11;96438.69;2071340;28;20250;-63
2023/10/14 14:58:19;;;;;;;9.07;2.50;;;;;;;15.22;68.99;96447.47;2072891;28;20599;-64
2023/10/14 14:59:21;;;;;;;14.82;2.85;;;;;;;14.96;68.78;96445.63;2071996;28;20243;-63
2023/10/14 15:00:26;;;;;;;7.05;2.10;;;;;;;15.06;68.76;96443.22;2070682;28;20701;-63
2023/10/14 15:01:31;;;;;;;10.75;2.55;;;;;;;14.98;69.33;96443.75;2068871;28;20230;-63
2023/10/14 15:02:34;;;;;;;10.18;2.10;;;;;;;15.21;67.49;96445.78;2064672;28;20205;-63
2023/10/14 15:03:36;;;;;;;11.88;2.45;;;;;;;15.29;67.75;96454.00;2065645;28;20198;-63
2023/10/14 15:04:38;;;;;;;6.00;2.10;;;;;;;14.85;67.88;96453.34;2069045;28;20248;-63
2023/10/14 15:05:42;;;;;;;12.02;2.60;;;;;;;14.75;68.41;96453.09;2069905;28;21276;-63
2023/10/14 15:06:43;;;;;;;10.60;2.75;;;;;;;15.08;67.98;96449.22;2070138;28;20601;-63
2023/10/14 15:07:48;;;;;;;19.02;2.17;;;;;;;15.36;67.45;96455.25;2073968;28;20201;-63
2023/10/14 15:08:51;;;;;;;12.13;2.58;;;;;;;15.65;66.58;96455.94;2072956;28;20201;-63
2023/10/14 15:09:54;;;;;;;7.70;2.20;;;;;;;15.46;65.64;96456.34;2073808;28;20275;-63
2023/10/14 15:10:57;;;;;;;9.95;2.55;;;;;;;15.33;66.91;96458.13;2072911;28;20206;-63
2023/10/14 15:11:58;;;;;;;14.60;2.78;;;;;;;14.82;67.03;96469.34;2071996;28;20597;-67
2023/10/14 15:13:03;;;;;;;9.90;2.17;;;;;;;14.98;67.52;96464.78;2072260;28;20761;-63
2023/10/14 15:14:06;;;;;;;12.02;3.38;;;;;;;15.19;67.33;96474.81;2072102;28;20197;-63
2023/10/14 15:15:09;;;;;;;6.45;2.53;;;;;;;14.99;66.87;96469.06;2069818;28;20264;-63
2023/10/14 15:16:11;;;;;;;8.65;2.53;;;;;;;14.93;67.26;96468.63;2072921;28;20190;-63
2023/10/14 15:17:12;;;;;;;10.35;2.40;;;;;;;14.59;67.30;96470.75;2072557;28;20194;-63
2023/10/14 15:18:14;;;;;;;9.95;2.55;;;;;;;14.42;67.85;96471.84;2069738;28;20656;-64
2023/10/14 15:19:15;;;;;;;12.32;3.10;;;;;;;14.79;67.75;96482.66;2071124;28;20193;-63
2023/10/14 15:20:18;;;;;;;16.50;2.92;;;;;;;15.22;66.56;96477.22;2072358;28;20228;-63
2023/10/14 15:26:54;;;;;;;11.85;2.40;;;;;;;12.16;75.56;96496.13;2090552;28;20593;-63
2023/10/14 15:27:56;;;;;;;9.88;2.22;;;;;;;12.54;73.88;96493.25;2090362;28;20195;-63
2023/10/14 15:28:57;;;;;;;12.60;2.50;;;;;;;13.10;72.70;96497.16;2090420;28;20219;-63
2023/10/14 15:29:59;;;;;;;10.13;2.70;;;;;;;13.50;71.68;96500.97;2088330;27;20219;-64
2023/10/14 15:31:07;;;;;;;8.90;2.30;;;;;;;13.70;70.99;96502.41;2085227;28;20199;-64
2023/10/14 15:32:09;;;;;;;13.80;2.45;;;;;;;12.83;72.48;96496.00;2084364;28;20648;-63
2023/10/14 15:38:25;;;;;;;10.98;2.30;;;;;;;12.13;75.90;96498.94;2092225;27;20568;-60
2023/10/14 15:39:33;;;;;;;17.85;2.60;;;;;;;12.44;74.70;96502.50;2090941;28;20188;-61
2023/10/14 15:40:35;;;;;;;9.50;2.70;;;;;;;12.61;73.90;96498.97;2080219;28;20272;-64
2023/10/14 15:41:37;;;;;;;11.38;2.70;;;;;;;12.76;73.07;96509.53;2078350;28;20540;-63
2023/10/14 15:42:43;;;;;;;8.23;2.70;;;;;;;12.76;72.93;96505.16;2078469;28;20562;-63
2023/10/14 15:43:44;;;;;;;9.55;2.03;;;;;;;12.56;72.21;96504.47;2081449;28;20252;-63
2023/10/14 15:44:49;;;;;;;7.47;2.17;;;;;;;12.70;72.56;96508.09;2077182;28;20216;-64
2023/10/14 15:45:57;;;;;;;9.70;2.10;;;;;;;12.68;71.99;96497.69;2078822;28;20213;-62
2023/10/14 15:46:59;;;;;;;7.13;2.13;;;;;;;12.80;72.12;96501.41;2079911;28;20201;-64
2023/10/14 15:48:11;;;;;;;8.68;1.92;;;;;;;12.73;71.77;96492.22;2081641;28;20199;-63
2023/10/14 15:49:13;;;;;;;7.35;1.73;;;;;;;12.85;71.58;96511.63;2075660;28;20193;-62
2023/10/14 15:50:18;;;;;;;14.30;2.47;;;;;;;12.87;70.94;96504.53;2080997;28;20221;-62
2023/10/14 15:51:20;;;;;;;14.18;2.33;;;;;;;12.90;71.00;96505.22;2079928;28;20634;-62
2023/10/14 15:52:21;;;;;;;11.65;2.10;;;;;;;12.98;71.61;96517.03;2078473;28;20860;-62
2023/10/14 15:53:23;;;;;;;12.48;1.90;;;;;;;12.81;71.45;96508.34;2076923;28;20264;-62
2023/10/14 15:54:28;;;;;;;10.15;2.60;;;;;;;12.71;71.90;96510.63;2079180;28;20282;-62
2023/10/14 15:55:32;;;;;;;15.48;2.10;;;;;;;12.71;71.72;96501.94;2079831;28;20217;-62
2023/10/14 15:56:34;;;;;;;9.23;2.20;;;;;;;12.83;70.99;96516.13;2079789;28;20185;-62
2023/10/14 15:57:35;;;;;;;8.93;2.10;;;;;;;13.00;71.14;96521.28;2082241;28;20198;-62
2023/10/14 15:58:36;;;;;;;10.00;2.17;;;;;;;13.13;70.53;96521.41;2081919;28;20770;-63
2023/10/14 15:59:41;;;;;;;12.90;2.33;;;;;;;13.33;70.14;96529.91;2081679;28;20246;-63
2023/10/14 16:00:49;;;;;;;9.73;1.98;;;;;;;13.35;69.60;96535.91;2079661;28;20667;-63
2023/10/14 16:01:51;;;;;;;8.55;2.40;;;;;;;13.06;70.32;96525.31;2079559;28;20210;-63
